sensor_id;sensor_type;location;lat;lon;timestamp;pressure;altitude;pressure_sealevel;temperature;humidity
48555;BME280;34336;48.270;16.716;2023-11-21T00:02:23;109325.25;;;18.16;85.69
48555;BME280;34336;48.270;16.716;2023-11-21T00:04:50;109325.25;;;18.16;86.46
48555;BME280;34336;48.270;16.716;2023-11-21T00:07:17;109325.25;;;18.16;87.03
48555;BME280;34336;48.270;16.716;2023-11-21T00:09:44;109325.25;;;18.16;86.33
48555;BME280;34336;48.270;16.716;2023-11-21T00:12:11;109325.25;;;18.16;85.98
48555;BME280;34336;48.270;16.716;2023-11-21T00:14:38;109325.25;;;18.16;86.08
48555;BME280;34336;48.270;16.716;2023-11-21T00:17:05;109325.25;;;18.16;86.30
48555;BME280;34336;48.270;16.716;2023-11-21T00:19:33;109325.25;;;18.16;85.90
48555;BME280;34336;48.270;16.716;2023-11-21T00:22:01;109325.25;;;18.16;86.54
48555;BME280;34336;48.270;16.716;2023-11-21T00:24:28;109325.25;;;18.16;86.78
48555;BME280;34336;48.270;16.716;2023-11-21T00:26:55;109325.25;;;18.16;86.75
48555;BME280;34336;48.270;16.716;2023-11-21T00:29:23;109325.25;;;18.16;87.04
48555;BME280;34336;48.270;16.716;2023-11-21T00:31:50;109325.25;;;18.16;87.00
48555;BME280;34336;48.270;16.716;2023-11-21T00:34:17;109325.25;;;18.16;87.17
48555;BME280;34336;48.270;16.716;2023-11-21T00:36:44;109325.25;;;18.16;87.29
48555;BME280;34336;48.270;16.716;2023-11-21T00:39:11;109325.25;;;18.16;87.14
48555;BME280;34336;48.270;16.716;2023-11-21T00:41:39;109325.25;;;18.16;87.55
48555;BME280;34336;48.270;16.716;2023-11-21T00:44:06;109325.25;;;18.16;87.83
48555;BME280;34336;48.270;16.716;2023-11-21T00:46:33;109325.25;;;18.16;88.35
48555;BME280;34336;48.270;16.716;2023-11-21T00:49:00;109325.25;;;18.16;88.74
48555;BME280;34336;48.270;16.716;2023-11-21T00:51:27;109325.25;;;18.16;89.67
48555;BME280;34336;48.270;16.716;2023-11-21T00:53:54;109325.25;;;18.16;90.35
48555;BME280;34336;48.270;16.716;2023-11-21T00:56:21;109325.25;;;18.16;90.42
48555;BME280;34336;48.270;16.716;2023-11-21T00:58:49;109325.25;;;18.16;90.74
48555;BME280;34336;48.270;16.716;2023-11-21T01:01:19;109325.25;;;18.16;90.57
48555;BME280;34336;48.270;16.716;2023-11-21T01:03:46;109325.25;;;18.16;91.45
48555;BME280;34336;48.270;16.716;2023-11-21T01:06:13;109325.25;;;18.16;91.90
48555;BME280;34336;48.270;16.716;2023-11-21T01:08:43;109325.25;;;18.16;91.74
48555;BME280;34336;48.270;16.716;2023-11-21T01:11:11;109325.25;;;18.16;91.21
48555;BME280;34336;48.270;16.716;2023-11-21T01:13:39;109325.25;;;18.16;91.92
48555;BME280;34336;48.270;16.716;2023-11-21T01:16:08;109325.25;;;18.16;92.06
48555;BME280;34336;48.270;16.716;2023-11-21T01:18:35;109325.25;;;18.16;92.28
48555;BME280;34336;48.270;16.716;2023-11-21T01:21:02;109325.25;;;18.16;92.75
48555;BME280;34336;48.270;16.716;2023-11-21T01:23:30;109325.25;;;18.16;92.92
48555;BME280;34336;48.270;16.716;2023-11-21T01:25:57;109325.25;;;18.16;93.32
48555;BME280;34336;48.270;16.716;2023-11-21T01:28:24;109325.25;;;18.16;93.62
48555;BME280;34336;48.270;16.716;2023-11-21T01:30:51;109325.25;;;18.16;94.20
48555;BME280;34336;48.270;16.716;2023-11-21T01:33:18;109325.25;;;18.16;94.86
48555;BME280;34336;48.270;16.716;2023-11-21T01:35:45;109325.25;;;18.16;94.38
48555;BME280;34336;48.270;16.716;2023-11-21T01:38:13;109325.25;;;18.16;94.44
48555;BME280;34336;48.270;16.716;2023-11-21T01:40:41;109325.25;;;18.16;94.35
48555;BME280;34336;48.270;16.716;2023-11-21T01:43:08;109325.25;;;18.16;94.12
48555;BME280;34336;48.270;16.716;2023-11-21T01:45:35;109325.25;;;18.16;93.73
48555;BME280;34336;48.270;16.716;2023-11-21T01:48:03;109325.25;;;18.16;94.36
48555;BME280;34336;48.270;16.716;2023-11-21T01:50:30;109325.25;;;18.16;94.27
48555;BME280;34336;48.270;16.716;2023-11-21T01:52:58;109325.25;;;18.16;94.33
48555;BME280;34336;48.270;16.716;2023-11-21T01:55:24;109325.25;;;18.16;94.43
48555;BME280;34336;48.270;16.716;2023-11-21T01:57:56;109325.25;;;18.16;94.72
48555;BME280;34336;48.270;16.716;2023-11-21T02:00:26;109325.25;;;18.16;94.75
48555;BME280;34336;48.270;16.716;2023-11-21T02:02:55;109325.25;;;18.16;95.18
48555;BME280;34336;48.270;16.716;2023-11-21T02:05:23;109325.25;;;18.16;95.28
48555;BME280;34336;48.270;16.716;2023-11-21T02:07:50;109325.25;;;18.16;95.20
48555;BME280;34336;48.270;16.716;2023-11-21T02:10:19;109325.25;;;18.16;95.36
48555;BME280;34336;48.270;16.716;2023-11-21T02:12:51;109325.25;;;18.16;95.54
48555;BME280;34336;48.270;16.716;2023-11-21T02:15:18;109325.25;;;18.16;95.48
48555;BME280;34336;48.270;16.716;2023-11-21T02:17:50;109325.25;;;18.16;96.08
48555;BME280;34336;48.270;16.716;2023-11-21T02:20:20;109325.25;;;18.16;96.56
48555;BME280;34336;48.270;16.716;2023-11-21T02:22:53;109325.25;;;18.16;96.25
48555;BME280;34336;48.270;16.716;2023-11-21T02:25:32;109325.25;;;18.16;96.77
48555;BME280;34336;48.270;16.716;2023-11-21T02:28:02;109325.25;;;18.16;96.79
48555;BME280;34336;48.270;16.716;2023-11-21T02:30:30;109325.25;;;18.16;96.91
48555;BME280;34336;48.270;16.716;2023-11-21T02:33:00;109325.25;;;18.16;97.05
48555;BME280;34336;48.270;16.716;2023-11-21T02:35:28;109325.25;;;18.16;96.56
48555;BME280;34336;48.270;16.716;2023-11-21T02:37:57;109325.25;;;18.16;96.10
48555;BME280;34336;48.270;16.716;2023-11-21T02:40:24;109325.25;;;18.16;94.67
48555;BME280;34336;48.270;16.716;2023-11-21T02:42:53;109325.25;;;18.16;94.94
48555;BME280;34336;48.270;16.716;2023-11-21T02:45:20;109325.25;;;18.16;95.22
48555;BME280;34336;48.270;16.716;2023-11-21T02:47:49;109325.25;;;18.16;95.29
48555;BME280;34336;48.270;16.716;2023-11-21T02:50:16;109325.25;;;18.16;95.28
48555;BME280;34336;48.270;16.716;2023-11-21T02:52:45;109325.25;;;18.16;95.38
48555;BME280;34336;48.270;16.716;2023-11-21T02:55:16;109325.25;;;18.16;95.49
48555;BME280;34336;48.270;16.716;2023-11-21T02:57:43;109325.25;;;18.16;95.72
48555;BME280;34336;48.270;16.716;2023-11-21T03:00:10;109325.25;;;18.16;95.72
48555;BME280;34336;48.270;16.716;2023-11-21T03:02:40;109325.25;;;18.16;96.45
48555;BME280;34336;48.270;16.716;2023-11-21T03:05:07;109325.25;;;18.16;96.75
48555;BME280;34336;48.270;16.716;2023-11-21T03:07:39;109325.25;;;18.16;97.18
48555;BME280;34336;48.270;16.716;2023-11-21T03:10:08;109325.25;;;18.16;97.69
48555;BME280;34336;48.270;16.716;2023-11-21T03:12:41;109325.25;;;18.16;98.30
48555;BME280;34336;48.270;16.716;2023-11-21T03:15:09;109325.25;;;18.16;98.74
48555;BME280;34336;48.270;16.716;2023-11-21T03:17:36;109325.25;;;18.16;98.35
48555;BME280;34336;48.270;16.716;2023-11-21T03:20:04;109325.25;;;18.16;98.16
48555;BME280;34336;48.270;16.716;2023-11-21T03:22:31;109325.25;;;18.16;98.61
48555;BME280;34336;48.270;16.716;2023-11-21T03:24:59;109325.25;;;18.16;99.07
48555;BME280;34336;48.270;16.716;2023-11-21T03:27:26;109325.25;;;18.16;99.67
48555;BME280;34336;48.270;16.716;2023-11-21T03:29:53;109325.25;;;18.16;99.87
48555;BME280;34336;48.270;16.716;2023-11-21T03:32:21;109325.25;;;18.16;100.00
48555;BME280;34336;48.270;16.716;2023-11-21T03:34:56;109325.25;;;18.16;99.88
48555;BME280;34336;48.270;16.716;2023-11-21T03:37:24;109325.25;;;18.16;100.00
48555;BME280;34336;48.270;16.716;2023-11-21T03:39:51;109325.25;;;18.16;100.00
48555;BME280;34336;48.270;16.716;2023-11-21T03:42:18;109325.25;;;18.16;100.00
48555;BME280;34336;48.270;16.716;2023-11-21T03:44:45;109325.25;;;18.16;100.00
48555;BME280;34336;48.270;16.716;2023-11-21T03:47:13;109325.25;;;18.16;100.00
48555;BME280;34336;48.270;16.716;2023-11-21T03:49:40;109325.25;;;18.16;100.00
48555;BME280;34336;48.270;16.716;2023-11-21T03:52:06;109325.25;;;18.16;100.00
48555;BME280;34336;48.270;16.716;2023-11-21T03:54:34;109325.25;;;18.16;100.00
48555;BME280;34336;48.270;16.716;2023-11-21T03:57:01;109325.25;;;18.16;100.00
48555;BME280;34336;48.270;16.716;2023-11-21T03:59:28;109325.25;;;18.16;100.00
48555;BME280;34336;48.270;16.716;2023-11-21T04:01:56;109325.25;;;18.16;100.00
48555;BME280;34336;48.270;16.716;2023-11-21T04:04:23;109325.25;;;18.16;100.00
48555;BME280;34336;48.270;16.716;2023-11-21T04:06:50;109325.25;;;18.16;100.00
48555;BME280;34336;48.270;16.716;2023-11-21T04:09:18;109325.25;;;18.16;100.00
48555;BME280;34336;48.270;16.716;2023-11-21T04:11:45;109325.25;;;18.16;100.00
48555;BME280;34336;48.270;16.716;2023-11-21T04:14:13;109325.25;;;18.16;100.00
48555;BME280;34336;48.270;16.716;2023-11-21T04:16:40;109325.25;;;18.16;100.00
48555;BME280;34336;48.270;16.716;2023-11-21T04:19:07;109325.25;;;18.16;100.00
48555;BME280;34336;48.270;16.716;2023-11-21T04:21:37;109325.25;;;18.16;100.00
48555;BME280;34336;48.270;16.716;2023-11-21T04:24:05;109325.25;;;18.16;100.00
48555;BME280;34336;48.270;16.716;2023-11-21T04:26:33;109325.25;;;18.16;100.00
48555;BME280;34336;48.270;16.716;2023-11-21T04:28:59;109325.25;;;18.16;100.00
48555;BME280;34336;48.270;16.716;2023-11-21T04:31:26;109325.25;;;18.16;100.00
48555;BME280;34336;48.270;16.716;2023-11-21T04:33:53;109325.25;;;18.16;100.00
48555;BME280;34336;48.270;16.716;2023-11-21T04:36:20;109325.25;;;18.16;100.00
48555;BME280;34336;48.270;16.716;2023-11-21T04:38:47;109325.25;;;18.16;100.00
48555;BME280;34336;48.270;16.716;2023-11-21T04:41:13;109325.25;;;18.16;100.00
48555;BME280;34336;48.270;16.716;2023-11-21T04:43:40;109325.25;;;18.16;100.00
48555;BME280;34336;48.270;16.716;2023-11-21T04:46:09;109325.25;;;18.16;100.00
48555;BME280;34336;48.270;16.716;2023-11-21T04:48:35;109325.25;;;18.16;100.00
48555;BME280;34336;48.270;16.716;2023-11-21T04:51:02;109325.25;;;18.16;100.00
48555;BME280;34336;48.270;16.716;2023-11-21T04:53:31;109325.25;;;18.16;100.00
48555;BME280;34336;48.270;16.716;2023-11-21T04:55:58;109325.25;;;18.16;100.00
48555;BME280;34336;48.270;16.716;2023-11-21T04:58:25;109325.25;;;18.16;100.00
48555;BME280;34336;48.270;16.716;2023-11-21T05:00:52;109325.25;;;18.16;100.00
48555;BME280;34336;48.270;16.716;2023-11-21T05:03:19;109325.25;;;18.16;100.00
48555;BME280;34336;48.270;16.716;2023-11-21T05:05:46;109325.25;;;18.16;100.00
48555;BME280;34336;48.270;16.716;2023-11-21T05:08:12;109325.25;;;18.16;100.00
48555;BME280;34336;48.270;16.716;2023-11-21T05:10:39;109325.25;;;18.16;100.00
48555;BME280;34336;48.270;16.716;2023-11-21T05:13:07;109325.25;;;18.16;100.00
48555;BME280;34336;48.270;16.716;2023-11-21T05:15:36;109325.25;;;18.16;100.00
48555;BME280;34336;48.270;16.716;2023-11-21T05:18:04;109325.25;;;18.16;100.00
48555;BME280;34336;48.270;16.716;2023-11-21T05:20:32;109325.25;;;18.16;100.00
48555;BME280;34336;48.270;16.716;2023-11-21T05:22:59;109325.25;;;18.16;100.00
48555;BME280;34336;48.270;16.716;2023-11-21T05:25:26;109325.25;;;18.16;100.00
48555;BME280;34336;48.270;16.716;2023-11-21T05:27:53;109325.25;;;18.16;100.00
48555;BME280;34336;48.270;16.716;2023-11-21T05:30:25;109325.25;;;18.16;100.00
48555;BME280;34336;48.270;16.716;2023-11-21T05:32:52;109325.25;;;18.16;100.00
48555;BME280;34336;48.270;16.716;2023-11-21T05:35:20;109325.25;;;18.16;100.00
48555;BME280;34336;48.270;16.716;2023-11-21T05:37:47;109325.25;;;18.16;100.00
48555;BME280;34336;48.270;16.716;2023-11-21T05:40:15;109325.25;;;18.16;100.00
48555;BME280;34336;48.270;16.716;2023-11-21T05:42:43;109325.25;;;18.16;100.00
48555;BME280;34336;48.270;16.716;2023-11-21T05:45:10;109325.25;;;18.16;100.00
48555;BME280;34336;48.270;16.716;2023-11-21T05:47:40;109325.25;;;18.16;100.00
48555;BME280;34336;48.270;16.716;2023-11-21T05:50:09;109325.25;;;18.16;100.00
48555;BME280;34336;48.270;16.716;2023-11-21T05:52:37;109325.25;;;18.16;100.00
48555;BME280;34336;48.270;16.716;2023-11-21T05:55:04;109325.25;;;18.16;100.00
48555;BME280;34336;48.270;16.716;2023-11-21T05:57:35;109325.25;;;18.16;100.00
48555;BME280;34336;48.270;16.716;2023-11-21T06:00:10;109325.25;;;18.16;100.00
48555;BME280;34336;48.270;16.716;2023-11-21T06:02:38;109325.25;;;18.16;100.00
48555;BME280;34336;48.270;16.716;2023-11-21T06:05:07;109325.25;;;18.16;100.00
48555;BME280;34336;48.270;16.716;2023-11-21T06:07:34;109325.25;;;18.16;100.00
48555;BME280;34336;48.270;16.716;2023-11-21T06:10:03;109325.25;;;18.16;100.00
48555;BME280;34336;48.270;16.716;2023-11-21T06:12:33;109325.25;;;18.16;100.00
48555;BME280;34336;48.270;16.716;2023-11-21T06:15:06;109325.25;;;18.16;100.00
48555;BME280;34336;48.270;16.716;2023-11-21T06:17:35;109325.25;;;18.16;100.00
48555;BME280;34336;48.270;16.716;2023-11-21T06:20:07;109325.25;;;18.16;100.00
48555;BME280;34336;48.270;16.716;2023-11-21T06:22:44;109325.25;;;18.16;100.00
48555;BME280;34336;48.270;16.716;2023-11-21T06:25:12;109325.25;;;18.16;100.00
48555;BME280;34336;48.270;16.716;2023-11-21T06:27:41;109325.25;;;18.16;100.00
48555;BME280;34336;48.270;16.716;2023-11-21T06:30:09;109325.25;;;18.16;100.00
48555;BME280;34336;48.270;16.716;2023-11-21T06:32:36;109325.25;;;18.16;100.00
48555;BME280;34336;48.270;16.716;2023-11-21T06:35:04;109325.25;;;18.16;100.00
48555;BME280;34336;48.270;16.716;2023-11-21T06:37:32;109325.25;;;18.16;100.00
48555;BME280;34336;48.270;16.716;2023-11-21T06:39:59;109325.25;;;18.16;100.00
48555;BME280;34336;48.270;16.716;2023-11-21T06:42:27;109325.25;;;18.16;100.00
48555;BME280;34336;48.270;16.716;2023-11-21T06:44:54;109325.25;;;18.16;100.00
48555;BME280;34336;48.270;16.716;2023-11-21T06:47:24;109325.25;;;18.16;100.00
48555;BME280;34336;48.270;16.716;2023-11-21T06:49:56;109325.25;;;18.16;100.00
48555;BME280;34336;48.270;16.716;2023-11-21T06:52:24;109325.25;;;18.16;100.00
48555;BME280;34336;48.270;16.716;2023-11-21T06:54:51;109325.25;;;18.16;100.00
48555;BME280;34336;48.270;16.716;2023-11-21T06:57:18;109325.25;;;18.16;100.00
48555;BME280;34336;48.270;16.716;2023-11-21T06:59:44;109325.25;;;18.16;100.00
48555;BME280;34336;48.270;16.716;2023-11-21T07:02:11;109325.25;;;18.16;100.00
48555;BME280;34336;48.270;16.716;2023-11-21T07:04:38;109325.25;;;18.16;100.00
48555;BME280;34336;48.270;16.716;2023-11-21T07:07:06;109325.25;;;18.16;100.00
48555;BME280;34336;48.270;16.716;2023-11-21T07:09:33;109325.25;;;18.16;100.00
48555;BME280;34336;48.270;16.716;2023-11-21T07:12:00;109325.25;;;18.16;100.00
48555;BME280;34336;48.270;16.716;2023-11-21T07:14:30;109325.25;;;18.16;100.00
48555;BME280;34336;48.270;16.716;2023-11-21T07:16:57;109325.25;;;18.16;100.00
48555;BME280;34336;48.270;16.716;2023-11-21T07:19:23;109325.25;;;18.16;100.00
48555;BME280;34336;48.270;16.716;2023-11-21T07:21:51;109325.25;;;18.16;100.00
48555;BME280;34336;48.270;16.716;2023-11-21T07:24:18;109325.25;;;18.16;100.00
48555;BME280;34336;48.270;16.716;2023-11-21T07:26:45;109325.25;;;18.16;100.00
48555;BME280;34336;48.270;16.716;2023-11-21T07:29:12;109325.25;;;18.16;100.00
48555;BME280;34336;48.270;16.716;2023-11-21T07:31:40;109325.25;;;18.16;100.00
48555;BME280;34336;48.270;16.716;2023-11-21T07:34:08;109325.25;;;18.16;100.00
48555;BME280;34336;48.270;16.716;2023-11-21T07:36:35;109325.25;;;18.16;100.00
48555;BME280;34336;48.270;16.716;2023-11-21T07:39:02;109325.25;;;18.16;100.00
48555;BME280;34336;48.270;16.716;2023-11-21T07:41:29;109325.25;;;18.16;100.00
48555;BME280;34336;48.270;16.716;2023-11-21T07:43:57;109325.25;;;18.16;100.00
48555;BME280;34336;48.270;16.716;2023-11-21T07:46:26;109325.25;;;18.16;100.00
48555;BME280;34336;48.270;16.716;2023-11-21T07:48:53;109325.25;;;18.16;100.00
48555;BME280;34336;48.270;16.716;2023-11-21T07:51:21;109325.25;;;18.16;100.00
48555;BME280;34336;48.270;16.716;2023-11-21T07:53:48;109325.25;;;18.16;99.69
48555;BME280;34336;48.270;16.716;2023-11-21T07:56:16;109325.25;;;18.16;99.37
48555;BME280;34336;48.270;16.716;2023-11-21T07:58:43;109325.25;;;18.16;99.10
48555;BME280;34336;48.270;16.716;2023-11-21T08:01:11;109325.25;;;18.16;98.74
48555;BME280;34336;48.270;16.716;2023-11-21T08:03:38;109325.25;;;18.16;98.08
48555;BME280;34336;48.270;16.716;2023-11-21T08:06:05;109325.25;;;18.16;98.07
48555;BME280;34336;48.270;16.716;2023-11-21T08:08:33;109325.25;;;18.16;97.85
48555;BME280;34336;48.270;16.716;2023-11-21T08:10:59;109325.25;;;18.16;96.85
48555;BME280;34336;48.270;16.716;2023-11-21T08:13:29;109325.25;;;18.16;96.77
48555;BME280;34336;48.270;16.716;2023-11-21T08:15:58;109325.25;;;18.16;96.38
48555;BME280;34336;48.270;16.716;2023-11-21T08:18:31;109325.25;;;18.16;96.92
48555;BME280;34336;48.270;16.716;2023-11-21T08:20:58;109325.25;;;18.16;96.55
48555;BME280;34336;48.270;16.716;2023-11-21T08:23:25;109325.25;;;18.16;95.14
48555;BME280;34336;48.270;16.716;2023-11-21T08:25:53;109325.25;;;18.16;93.50
48555;BME280;34336;48.270;16.716;2023-11-21T08:28:20;109325.25;;;18.16;91.82
48555;BME280;34336;48.270;16.716;2023-11-21T08:30:49;109325.25;;;18.16;90.68
48555;BME280;34336;48.270;16.716;2023-11-21T08:33:16;109325.25;;;18.16;89.76
48555;BME280;34336;48.270;16.716;2023-11-21T08:35:44;109325.25;;;18.16;88.07
48555;BME280;34336;48.270;16.716;2023-11-21T08:38:12;109325.25;;;18.16;86.38
48555;BME280;34336;48.270;16.716;2023-11-21T08:40:39;109325.25;;;18.16;85.29
48555;BME280;34336;48.270;16.716;2023-11-21T08:43:06;109325.25;;;18.16;83.76
48555;BME280;34336;48.270;16.716;2023-11-21T08:45:33;109325.25;;;18.16;83.16
48555;BME280;34336;48.270;16.716;2023-11-21T08:48:03;109325.25;;;18.16;82.05
48555;BME280;34336;48.270;16.716;2023-11-21T08:50:30;109325.25;;;18.16;80.84
48555;BME280;34336;48.270;16.716;2023-11-21T08:52:57;109325.25;;;18.16;80.34
48555;BME280;34336;48.270;16.716;2023-11-21T08:55:24;109325.25;;;18.16;79.04
48555;BME280;34336;48.270;16.716;2023-11-21T08:57:51;109325.25;;;18.16;78.67
48555;BME280;34336;48.270;16.716;2023-11-21T09:00:18;109325.25;;;18.16;77.77
48555;BME280;34336;48.270;16.716;2023-11-21T09:02:45;109325.25;;;18.16;76.82
48555;BME280;34336;48.270;16.716;2023-11-21T09:05:14;109325.25;;;18.16;77.87
48555;BME280;34336;48.270;16.716;2023-11-21T09:07:41;109325.25;;;18.16;77.48
48555;BME280;34336;48.270;16.716;2023-11-21T09:10:09;109325.25;;;18.16;76.26
48555;BME280;34336;48.270;16.716;2023-11-21T09:12:37;109325.25;;;18.16;74.74
48555;BME280;34336;48.270;16.716;2023-11-21T09:15:07;109325.25;;;18.16;75.89
48555;BME280;34336;48.270;16.716;2023-11-21T09:17:36;109325.25;;;18.16;76.71
48555;BME280;34336;48.270;16.716;2023-11-21T09:20:04;109325.25;;;18.16;74.41
48555;BME280;34336;48.270;16.716;2023-11-21T09:22:32;109325.25;;;18.16;72.91
48555;BME280;34336;48.270;16.716;2023-11-21T09:24:59;109325.25;;;18.16;71.42
48555;BME280;34336;48.270;16.716;2023-11-21T09:27:26;109325.25;;;18.16;71.62
48555;BME280;34336;48.270;16.716;2023-11-21T09:29:53;109325.25;;;18.16;71.75
48555;BME280;34336;48.270;16.716;2023-11-21T09:32:20;109325.25;;;18.16;68.65
48555;BME280;34336;48.270;16.716;2023-11-21T09:34:49;109325.25;;;18.16;67.58
48555;BME280;34336;48.270;16.716;2023-11-21T09:37:16;109325.25;;;18.16;67.65
48555;BME280;34336;48.270;16.716;2023-11-21T09:39:43;109325.25;;;18.16;67.46
48555;BME280;34336;48.270;16.716;2023-11-21T09:42:12;109325.25;;;18.16;67.69
48555;BME280;34336;48.270;16.716;2023-11-21T09:47:49;109325.25;;;18.16;68.37
48555;BME280;34336;48.270;16.716;2023-11-21T09:50:17;109325.25;;;18.16;68.89
48555;BME280;34336;48.270;16.716;2023-11-21T09:55:34;109325.25;;;18.16;69.01
48555;BME280;34336;48.270;16.716;2023-11-21T09:58:03;109325.25;;;18.16;69.09
48555;BME280;34336;48.270;16.716;2023-11-21T10:00:32;109325.25;;;18.16;68.89
48555;BME280;34336;48.270;16.716;2023-11-21T10:02:59;109325.25;;;18.16;69.90
48555;BME280;34336;48.270;16.716;2023-11-21T10:05:26;109325.25;;;18.16;69.47
48555;BME280;34336;48.270;16.716;2023-11-21T10:07:56;109325.25;;;18.16;69.30
48555;BME280;34336;48.270;16.716;2023-11-21T10:10:24;109325.25;;;18.16;69.72
48555;BME280;34336;48.270;16.716;2023-11-21T10:12:56;109325.25;;;18.16;69.32
48555;BME280;34336;48.270;16.716;2023-11-21T10:15:23;109325.25;;;18.16;68.99
48555;BME280;34336;48.270;16.716;2023-11-21T10:17:55;109325.25;;;18.16;68.99
48555;BME280;34336;48.270;16.716;2023-11-21T10:20:23;109325.25;;;18.16;69.16
48555;BME280;34336;48.270;16.716;2023-11-21T10:22:51;109325.25;;;18.16;69.74
48555;BME280;34336;48.270;16.716;2023-11-21T10:25:18;109325.25;;;18.16;68.76
48555;BME280;34336;48.270;16.716;2023-11-21T10:27:48;109325.25;;;18.16;68.88
48555;BME280;34336;48.270;16.716;2023-11-21T10:30:17;109325.25;;;18.16;69.04
48555;BME280;34336;48.270;16.716;2023-11-21T10:32:44;109325.25;;;18.16;68.28
48555;BME280;34336;48.270;16.716;2023-11-21T10:35:11;109325.25;;;18.16;68.23
48555;BME280;34336;48.270;16.716;2023-11-21T10:37:41;109325.25;;;18.16;67.48
48555;BME280;34336;48.270;16.716;2023-11-21T10:40:10;109325.25;;;18.16;67.68
48555;BME280;34336;48.270;16.716;2023-11-21T10:42:39;109325.25;;;18.16;66.88
48555;BME280;34336;48.270;16.716;2023-11-21T10:45:08;109325.25;;;18.16;65.78
48555;BME280;34336;48.270;16.716;2023-11-21T10:47:44;109325.25;;;18.16;66.07
48555;BME280;34336;48.270;16.716;2023-11-21T10:50:11;109325.25;;;18.16;65.16
48555;BME280;34336;48.270;16.716;2023-11-21T10:52:41;109325.25;;;18.16;63.49
48555;BME280;34336;48.270;16.716;2023-11-21T10:55:17;109325.25;;;18.16;62.74
48555;BME280;34336;48.270;16.716;2023-11-21T10:57:48;109325.25;;;18.16;60.43
48555;BME280;34336;48.270;16.716;2023-11-21T11:00:16;109325.25;;;18.16;58.96
48555;BME280;34336;48.270;16.716;2023-11-21T11:02:43;109325.25;;;18.16;58.59
48555;BME280;34336;48.270;16.716;2023-11-21T11:05:10;109325.25;;;18.16;59.60
48555;BME280;34336;48.270;16.716;2023-11-21T11:07:40;109325.25;;;18.16;60.44
48555;BME280;34336;48.270;16.716;2023-11-21T11:10:09;109325.25;;;18.16;59.86
48555;BME280;34336;48.270;16.716;2023-11-21T11:12:41;109325.25;;;18.16;60.44
48555;BME280;34336;48.270;16.716;2023-11-21T11:15:08;109325.25;;;18.16;60.42
48555;BME280;34336;48.270;16.716;2023-11-21T11:17:37;109325.25;;;18.16;60.82
48555;BME280;34336;48.270;16.716;2023-11-21T11:20:05;109325.25;;;18.16;62.05
48555;BME280;34336;48.270;16.716;2023-11-21T11:28:27;109325.25;;;18.16;62.35
48555;BME280;34336;48.270;16.716;2023-11-21T11:31:27;109325.25;;;18.16;62.05
48555;BME280;34336;48.270;16.716;2023-11-21T11:34:14;109325.25;;;18.16;61.88
48555;BME280;34336;48.270;16.716;2023-11-21T11:36:49;109325.25;;;18.16;60.99
48555;BME280;34336;48.270;16.716;2023-11-21T11:42:03;109325.25;;;18.16;62.01
48555;BME280;34336;48.270;16.716;2023-11-21T11:47:20;109325.25;;;18.16;63.28
48555;BME280;34336;48.270;16.716;2023-11-21T11:52:45;109325.25;;;18.16;63.23
48555;BME280;34336;48.270;16.716;2023-11-21T11:55:16;109325.25;;;18.16;63.41
48555;BME280;34336;48.270;16.716;2023-11-21T11:57:51;109325.25;;;18.16;62.30
48555;BME280;34336;48.270;16.716;2023-11-21T12:00:18;109325.25;;;18.16;62.18
48555;BME280;34336;48.270;16.716;2023-11-21T12:02:53;109325.25;;;18.16;61.95
48555;BME280;34336;48.270;16.716;2023-11-21T12:05:21;109325.25;;;18.16;61.81
48555;BME280;34336;48.270;16.716;2023-11-21T12:07:59;109325.25;;;18.16;63.05
48555;BME280;34336;48.270;16.716;2023-11-21T12:10:28;109325.25;;;18.16;62.48
48555;BME280;34336;48.270;16.716;2023-11-21T12:12:57;109325.25;;;18.16;62.61
48555;BME280;34336;48.270;16.716;2023-11-21T12:15:25;109325.25;;;18.16;63.54
48555;BME280;34336;48.270;16.716;2023-11-21T12:17:52;109325.25;;;18.16;64.06
48555;BME280;34336;48.270;16.716;2023-11-21T12:20:21;109325.25;;;18.16;64.20
48555;BME280;34336;48.270;16.716;2023-11-21T12:22:52;109325.25;;;18.16;64.34
48555;BME280;34336;48.270;16.716;2023-11-21T12:25:21;109325.25;;;18.16;64.92
48555;BME280;34336;48.270;16.716;2023-11-21T12:27:50;109325.25;;;18.16;64.58
48555;BME280;34336;48.270;16.716;2023-11-21T12:30:19;109325.25;;;18.16;64.39
48555;BME280;34336;48.270;16.716;2023-11-21T12:32:51;109325.25;;;18.16;65.24
48555;BME280;34336;48.270;16.716;2023-11-21T12:35:21;109325.25;;;18.16;65.39
48555;BME280;34336;48.270;16.716;2023-11-21T12:37:48;109325.25;;;18.16;65.74
48555;BME280;34336;48.270;16.716;2023-11-21T12:40:16;109325.25;;;18.16;65.86
48555;BME280;34336;48.270;16.716;2023-11-21T12:42:45;109325.25;;;18.16;66.26
48555;BME280;34336;48.270;16.716;2023-11-21T12:47:52;109325.25;;;18.16;66.50
48555;BME280;34336;48.270;16.716;2023-11-21T12:50:23;109325.25;;;18.16;67.02
48555;BME280;34336;48.270;16.716;2023-11-21T12:52:53;109325.25;;;18.16;66.60
48555;BME280;34336;48.270;16.716;2023-11-21T12:55:21;109325.25;;;18.16;66.90
48555;BME280;34336;48.270;16.716;2023-11-21T12:57:55;109325.25;;;18.16;67.45
48555;BME280;34336;48.270;16.716;2023-11-21T13:00:31;109325.25;;;18.16;67.66
48555;BME280;34336;48.270;16.716;2023-11-21T13:02:59;109325.25;;;18.16;67.97
48555;BME280;34336;48.270;16.716;2023-11-21T13:05:31;109325.25;;;18.16;68.11